sensor_id;sensor_type;location;lat;lon;timestamp;P1;durP1;ratioP1;P2;durP2;ratioP2
78860;SDS011;68211;45.774;15.892;2023-02-28T00:00:23;23.67;;;16.05;;
78860;SDS011;68211;45.774;15.892;2023-02-28T00:02:50;20.52;;;15.32;;
78860;SDS011;68211;45.774;15.892;2023-02-28T00:05:17;21.63;;;16.67;;
78860;SDS011;68211;45.774;15.892;2023-02-28T00:07:43;25.20;;;17.10;;
78860;SDS011;68211;45.774;15.892;2023-02-28T00:10:13;22.63;;;16.02;;
78860;SDS011;68211;45.774;15.892;2023-02-28T00:15:06;21.05;;;15.55;;
78860;SDS011;68211;45.774;15.892;2023-02-28T00:17:33;25.52;;;16.95;;
78860;SDS011;68211;45.774;15.892;2023-02-28T00:19:59;24.63;;;17.15;;
78860;SDS011;68211;45.774;15.892;2023-02-28T00:22:26;24.02;;;17.08;;
78860;SDS011;68211;45.774;15.892;2023-02-28T00:24:52;23.98;;;17.10;;
78860;SDS011;68211;45.774;15.892;2023-02-28T00:27:20;23.80;;;16.75;;
78860;SDS011;68211;45.774;15.892;2023-02-28T00:29:46;26.35;;;18.13;;
78860;SDS011;68211;45.774;15.892;2023-02-28T00:32:13;25.63;;;17.70;;
78860;SDS011;68211;45.774;15.892;2023-02-28T00:34:39;24.67;;;18.05;;
78860;SDS011;68211;45.774;15.892;2023-02-28T00:37:06;32.92;;;18.80;;
78860;SDS011;68211;45.774;15.892;2023-02-28T00:39:33;26.35;;;19.30;;
78860;SDS011;68211;45.774;15.892;2023-02-28T00:42:00;30.90;;;18.10;;
78860;SDS011;68211;45.774;15.892;2023-02-28T00:44:27;27.17;;;18.10;;
78860;SDS011;68211;45.774;15.892;2023-02-28T00:46:54;29.77;;;19.05;;
78860;SDS011;68211;45.774;15.892;2023-02-28T00:49:20;24.42;;;16.98;;
78860;SDS011;68211;45.774;15.892;2023-02-28T00:51:47;23.50;;;16.65;;
78860;SDS011;68211;45.774;15.892;2023-02-28T00:54:13;24.95;;;15.90;;
78860;SDS011;68211;45.774;15.892;2023-02-28T00:56:40;21.63;;;14.57;;
78860;SDS011;68211;45.774;15.892;2023-02-28T00:59:06;17.55;;;13.98;;
78860;SDS011;68211;45.774;15.892;2023-02-28T01:01:34;18.10;;;13.75;;
78860;SDS011;68211;45.774;15.892;2023-02-28T01:04:01;21.08;;;12.02;;
78860;SDS011;68211;45.774;15.892;2023-02-28T01:06:27;18.27;;;11.73;;
78860;SDS011;68211;45.774;15.892;2023-02-28T01:08:53;15.57;;;11.15;;
78860;SDS011;68211;45.774;15.892;2023-02-28T01:11:20;13.85;;;10.73;;
78860;SDS011;68211;45.774;15.892;2023-02-28T01:13:46;14.52;;;11.00;;
78860;SDS011;68211;45.774;15.892;2023-02-28T01:16:13;12.85;;;10.68;;
78860;SDS011;68211;45.774;15.892;2023-02-28T01:18:41;15.57;;;10.85;;
78860;SDS011;68211;45.774;15.892;2023-02-28T01:21:08;15.02;;;11.02;;
78860;SDS011;68211;45.774;15.892;2023-02-28T01:23:35;13.23;;;10.98;;
78860;SDS011;68211;45.774;15.892;2023-02-28T01:26:03;11.50;;;9.88;;
78860;SDS011;68211;45.774;15.892;2023-02-28T01:28:30;13.88;;;11.20;;
78860;SDS011;68211;45.774;15.892;2023-02-28T01:30:56;12.98;;;10.95;;
78860;SDS011;68211;45.774;15.892;2023-02-28T01:33:23;15.05;;;11.40;;
78860;SDS011;68211;45.774;15.892;2023-02-28T01:35:56;18.95;;;11.43;;
78860;SDS011;68211;45.774;15.892;2023-02-28T01:38:23;14.93;;;10.85;;
78860;SDS011;68211;45.774;15.892;2023-02-28T01:40:49;14.68;;;11.85;;
78860;SDS011;68211;45.774;15.892;2023-02-28T01:43:19;15.07;;;11.70;;
78860;SDS011;68211;45.774;15.892;2023-02-28T01:45:45;15.30;;;12.93;;
78860;SDS011;68211;45.774;15.892;2023-02-28T01:48:12;15.98;;;11.60;;
78860;SDS011;68211;45.774;15.892;2023-02-28T01:50:39;16.17;;;12.40;;
78860;SDS011;68211;45.774;15.892;2023-02-28T01:53:09;16.60;;;11.73;;
78860;SDS011;68211;45.774;15.892;2023-02-28T01:55:36;15.23;;;12.10;;
78860;SDS011;68211;45.774;15.892;2023-02-28T01:58:04;15.98;;;12.52;;
78860;SDS011;68211;45.774;15.892;2023-02-28T02:00:31;16.70;;;12.40;;
78860;SDS011;68211;45.774;15.892;2023-02-28T02:02:59;15.27;;;13.15;;
78860;SDS011;68211;45.774;15.892;2023-02-28T02:05:26;16.83;;;12.45;;
78860;SDS011;68211;45.774;15.892;2023-02-28T02:07:54;16.63;;;13.85;;
78860;SDS011;68211;45.774;15.892;2023-02-28T02:10:24;17.00;;;13.20;;
78860;SDS011;68211;45.774;15.892;2023-02-28T02:13:00;20.25;;;14.30;;
78860;SDS011;68211;45.774;15.892;2023-02-28T02:15:30;20.00;;;13.73;;
78860;SDS011;68211;45.774;15.892;2023-02-28T02:17:59;19.70;;;13.75;;
78860;SDS011;68211;45.774;15.892;2023-02-28T02:20:46;19.05;;;13.90;;
78860;SDS011;68211;45.774;15.892;2023-02-28T02:26:09;21.42;;;15.55;;
78860;SDS011;68211;45.774;15.892;2023-02-28T02:28:46;19.48;;;14.80;;
78860;SDS011;68211;45.774;15.892;2023-02-28T02:31:31;19.30;;;14.25;;
78860;SDS011;68211;45.774;15.892;2023-02-28T02:36:42;20.48;;;14.57;;
78860;SDS011;68211;45.774;15.892;2023-02-28T02:39:12;21.25;;;15.27;;
78860;SDS011;68211;45.774;15.892;2023-02-28T02:41:41;19.80;;;15.35;;
78860;SDS011;68211;45.774;15.892;2023-02-28T02:44:13;23.38;;;15.50;;
78860;SDS011;68211;45.774;15.892;2023-02-28T02:46:42;19.75;;;16.00;;
78860;SDS011;68211;45.774;15.892;2023-02-28T02:49:11;23.88;;;16.45;;
78860;SDS011;68211;45.774;15.892;2023-02-28T02:51:39;21.52;;;15.48;;
78860;SDS011;68211;45.774;15.892;2023-02-28T02:54:09;24.75;;;16.30;;
78860;SDS011;68211;45.774;15.892;2023-02-28T02:56:37;20.27;;;15.75;;
78860;SDS011;68211;45.774;15.892;2023-02-28T02:59:06;18.70;;;14.68;;
78860;SDS011;68211;45.774;15.892;2023-02-28T03:01:33;19.93;;;14.53;;
78860;SDS011;68211;45.774;15.892;2023-02-28T03:04:01;20.83;;;15.32;;
78860;SDS011;68211;45.774;15.892;2023-02-28T03:06:28;21.58;;;15.27;;
78860;SDS011;68211;45.774;15.892;2023-02-28T03:08:55;21.83;;;15.63;;
78860;SDS011;68211;45.774;15.892;2023-02-28T03:11:22;26.00;;;16.85;;
78860;SDS011;68211;45.774;15.892;2023-02-28T03:13:55;24.73;;;16.20;;
78860;SDS011;68211;45.774;15.892;2023-02-28T03:16:31;22.67;;;16.20;;
78860;SDS011;68211;45.774;15.892;2023-02-28T03:19:02;23.15;;;16.65;;
78860;SDS011;68211;45.774;15.892;2023-02-28T03:21:32;25.63;;;16.58;;
78860;SDS011;68211;45.774;15.892;2023-02-28T03:24:02;22.52;;;15.30;;
78860;SDS011;68211;45.774;15.892;2023-02-28T03:26:31;21.58;;;16.63;;
78860;SDS011;68211;45.774;15.892;2023-02-28T03:29:02;23.17;;;17.48;;
78860;SDS011;68211;45.774;15.892;2023-02-28T03:31:30;25.67;;;17.70;;
78860;SDS011;68211;45.774;15.892;2023-02-28T03:36:25;22.95;;;16.65;;
78860;SDS011;68211;45.774;15.892;2023-02-28T03:38:54;25.27;;;17.00;;
78860;SDS011;68211;45.774;15.892;2023-02-28T03:41:23;23.02;;;16.83;;
78860;SDS011;68211;45.774;15.892;2023-02-28T03:43:53;26.67;;;17.35;;
78860;SDS011;68211;45.774;15.892;2023-02-28T03:46:21;25.65;;;16.67;;
78860;SDS011;68211;45.774;15.892;2023-02-28T03:48:49;25.40;;;17.27;;
78860;SDS011;68211;45.774;15.892;2023-02-28T03:51:17;21.90;;;16.92;;
78860;SDS011;68211;45.774;15.892;2023-02-28T03:53:45;24.20;;;17.05;;
78860;SDS011;68211;45.774;15.892;2023-02-28T03:56:13;24.48;;;17.27;;
78860;SDS011;68211;45.774;15.892;2023-02-28T03:58:43;25.63;;;17.77;;
78860;SDS011;68211;45.774;15.892;2023-02-28T04:01:15;22.35;;;16.63;;
78860;SDS011;68211;45.774;15.892;2023-02-28T04:03:43;22.55;;;17.35;;
78860;SDS011;68211;45.774;15.892;2023-02-28T04:06:13;26.70;;;17.55;;
78860;SDS011;68211;45.774;15.892;2023-02-28T04:08:40;23.77;;;16.90;;
78860;SDS011;68211;45.774;15.892;2023-02-28T04:11:08;23.92;;;17.52;;
78860;SDS011;68211;45.774;15.892;2023-02-28T04:13:38;24.25;;;16.50;;
78860;SDS011;68211;45.774;15.892;2023-02-28T04:16:06;23.60;;;16.30;;
78860;SDS011;68211;45.774;15.892;2023-02-28T04:18:34;22.13;;;15.85;;
78860;SDS011;68211;45.774;15.892;2023-02-28T04:21:01;21.70;;;17.02;;
78860;SDS011;68211;45.774;15.892;2023-02-28T04:23:27;23.70;;;16.75;;
78860;SDS011;68211;45.774;15.892;2023-02-28T04:25:54;21.23;;;16.95;;
78860;SDS011;68211;45.774;15.892;2023-02-28T04:28:20;22.63;;;17.00;;
78860;SDS011;68211;45.774;15.892;2023-02-28T04:30:47;23.92;;;16.70;;
78860;SDS011;68211;45.774;15.892;2023-02-28T04:33:13;23.23;;;16.77;;
78860;SDS011;68211;45.774;15.892;2023-02-28T04:35:41;23.40;;;17.10;;
78860;SDS011;68211;45.774;15.892;2023-02-28T04:38:08;24.98;;;17.10;;
78860;SDS011;68211;45.774;15.892;2023-02-28T04:40:35;20.98;;;16.50;;
78860;SDS011;68211;45.774;15.892;2023-02-28T04:43:01;26.13;;;17.88;;
78860;SDS011;68211;45.774;15.892;2023-02-28T04:45:28;24.63;;;17.10;;
78860;SDS011;68211;45.774;15.892;2023-02-28T04:47:54;22.45;;;16.33;;
78860;SDS011;68211;45.774;15.892;2023-02-28T04:50:20;24.25;;;17.42;;
78860;SDS011;68211;45.774;15.892;2023-02-28T04:52:48;23.83;;;16.52;;
78860;SDS011;68211;45.774;15.892;2023-02-28T04:55:15;19.98;;;16.20;;
78860;SDS011;68211;45.774;15.892;2023-02-28T04:57:41;24.98;;;17.60;;
78860;SDS011;68211;45.774;15.892;2023-02-28T05:00:08;25.10;;;16.42;;
78860;SDS011;68211;45.774;15.892;2023-02-28T05:02:35;25.48;;;17.27;;
78860;SDS011;68211;45.774;15.892;2023-02-28T05:05:01;23.33;;;17.70;;
78860;SDS011;68211;45.774;15.892;2023-02-28T05:07:28;23.63;;;16.60;;
78860;SDS011;68211;45.774;15.892;2023-02-28T05:09:55;19.23;;;16.52;;
78860;SDS011;68211;45.774;15.892;2023-02-28T05:12:22;26.55;;;16.25;;
78860;SDS011;68211;45.774;15.892;2023-02-28T05:14:48;27.65;;;18.05;;
78860;SDS011;68211;45.774;15.892;2023-02-28T05:17:15;24.20;;;18.23;;
78860;SDS011;68211;45.774;15.892;2023-02-28T05:19:41;25.42;;;17.52;;
78860;SDS011;68211;45.774;15.892;2023-02-28T05:22:11;25.00;;;18.00;;
78860;SDS011;68211;45.774;15.892;2023-02-28T05:24:38;22.98;;;15.75;;
78860;SDS011;68211;45.774;15.892;2023-02-28T05:27:07;19.55;;;15.20;;
78860;SDS011;68211;45.774;15.892;2023-02-28T05:29:34;23.05;;;17.77;;
78860;SDS011;68211;45.774;15.892;2023-02-28T05:32:00;22.60;;;16.52;;
78860;SDS011;68211;45.774;15.892;2023-02-28T05:34:27;20.90;;;16.05;;
78860;SDS011;68211;45.774;15.892;2023-02-28T05:36:53;23.70;;;17.33;;
78860;SDS011;68211;45.774;15.892;2023-02-28T05:39:19;23.60;;;16.70;;
78860;SDS011;68211;45.774;15.892;2023-02-28T05:41:46;23.27;;;16.42;;
78860;SDS011;68211;45.774;15.892;2023-02-28T05:44:14;27.00;;;17.85;;
78860;SDS011;68211;45.774;15.892;2023-02-28T05:46:41;24.58;;;16.73;;
78860;SDS011;68211;45.774;15.892;2023-02-28T05:49:07;19.27;;;15.88;;
78860;SDS011;68211;45.774;15.892;2023-02-28T05:51:34;21.67;;;16.05;;
78860;SDS011;68211;45.774;15.892;2023-02-28T05:54:00;21.23;;;16.80;;
78860;SDS011;68211;45.774;15.892;2023-02-28T05:56:27;21.33;;;16.45;;
78860;SDS011;68211;45.774;15.892;2023-02-28T05:58:54;25.17;;;17.05;;
78860;SDS011;68211;45.774;15.892;2023-02-28T06:01:23;21.45;;;15.98;;
78860;SDS011;68211;45.774;15.892;2023-02-28T06:06:16;21.30;;;15.43;;
78860;SDS011;68211;45.774;15.892;2023-02-28T06:08:42;23.85;;;16.45;;
78860;SDS011;68211;45.774;15.892;2023-02-28T06:11:08;23.52;;;16.30;;
78860;SDS011;68211;45.774;15.892;2023-02-28T06:13:35;18.88;;;15.13;;
78860;SDS011;68211;45.774;15.892;2023-02-28T06:16:01;21.75;;;16.48;;
78860;SDS011;68211;45.774;15.892;2023-02-28T06:18:29;23.88;;;17.80;;
78860;SDS011;68211;45.774;15.892;2023-02-28T06:20:55;22.83;;;15.30;;
78860;SDS011;68211;45.774;15.892;2023-02-28T06:23:22;21.50;;;16.35;;
78860;SDS011;68211;45.774;15.892;2023-02-28T06:25:48;22.60;;;16.25;;
78860;SDS011;68211;45.774;15.892;2023-02-28T06:28:15;20.90;;;16.17;;
78860;SDS011;68211;45.774;15.892;2023-02-28T06:30:41;20.48;;;16.15;;
78860;SDS011;68211;45.774;15.892;2023-02-28T06:33:10;20.90;;;15.88;;
78860;SDS011;68211;45.774;15.892;2023-02-28T06:35:38;20.98;;;14.43;;
78860;SDS011;68211;45.774;15.892;2023-02-28T06:38:05;23.50;;;17.13;;
78860;SDS011;68211;45.774;15.892;2023-02-28T06:40:31;29.50;;;15.55;;
78860;SDS011;68211;45.774;15.892;2023-02-28T06:42:57;24.38;;;17.23;;
78860;SDS011;68211;45.774;15.892;2023-02-28T06:45:24;25.63;;;17.02;;
78860;SDS011;68211;45.774;15.892;2023-02-28T06:47:50;27.45;;;19.55;;
78860;SDS011;68211;45.774;15.892;2023-02-28T06:50:17;22.73;;;17.88;;
78860;SDS011;68211;45.774;15.892;2023-02-28T06:52:44;20.92;;;16.13;;
78860;SDS011;68211;45.774;15.892;2023-02-28T06:55:11;22.95;;;17.15;;
78860;SDS011;68211;45.774;15.892;2023-02-28T06:57:37;21.13;;;16.00;;
78860;SDS011;68211;45.774;15.892;2023-02-28T07:00:05;23.48;;;15.90;;
78860;SDS011;68211;45.774;15.892;2023-02-28T07:02:31;19.67;;;15.88;;
78860;SDS011;68211;45.774;15.892;2023-02-28T07:04:58;20.95;;;17.13;;
78860;SDS011;68211;45.774;15.892;2023-02-28T07:07:24;19.70;;;16.60;;
78860;SDS011;68211;45.774;15.892;2023-02-28T07:09:52;22.17;;;16.08;;
78860;SDS011;68211;45.774;15.892;2023-02-28T07:12:18;20.25;;;16.75;;
78860;SDS011;68211;45.774;15.892;2023-02-28T07:14:45;21.60;;;16.20;;
78860;SDS011;68211;45.774;15.892;2023-02-28T07:17:11;22.40;;;16.63;;
78860;SDS011;68211;45.774;15.892;2023-02-28T07:19:38;22.50;;;15.45;;
78860;SDS011;68211;45.774;15.892;2023-02-28T07:22:05;20.73;;;15.18;;
78860;SDS011;68211;45.774;15.892;2023-02-28T07:24:31;19.48;;;15.15;;
78860;SDS011;68211;45.774;15.892;2023-02-28T07:26:59;18.65;;;16.02;;
78860;SDS011;68211;45.774;15.892;2023-02-28T07:29:25;23.65;;;16.13;;
78860;SDS011;68211;45.774;15.892;2023-02-28T07:31:52;17.90;;;14.68;;
78860;SDS011;68211;45.774;15.892;2023-02-28T07:34:18;21.05;;;15.55;;
78860;SDS011;68211;45.774;15.892;2023-02-28T07:36:45;20.70;;;15.70;;
78860;SDS011;68211;45.774;15.892;2023-02-28T07:39:11;18.25;;;14.18;;
78860;SDS011;68211;45.774;15.892;2023-02-28T07:41:38;21.55;;;14.95;;
78860;SDS011;68211;45.774;15.892;2023-02-28T07:44:05;25.65;;;14.63;;
78860;SDS011;68211;45.774;15.892;2023-02-28T07:46:32;19.67;;;15.20;;
78860;SDS011;68211;45.774;15.892;2023-02-28T07:48:59;21.02;;;14.68;;
78860;SDS011;68211;45.774;15.892;2023-02-28T07:51:25;17.45;;;14.13;;
78860;SDS011;68211;45.774;15.892;2023-02-28T07:53:52;18.67;;;14.38;;
78860;SDS011;68211;45.774;15.892;2023-02-28T07:56:18;15.13;;;13.02;;
78860;SDS011;68211;45.774;15.892;2023-02-28T07:58:45;15.68;;;12.77;;
78860;SDS011;68211;45.774;15.892;2023-02-28T08:01:12;17.25;;;13.13;;
78860;SDS011;68211;45.774;15.892;2023-02-28T08:03:39;15.80;;;12.90;;
78860;SDS011;68211;45.774;15.892;2023-02-28T08:06:06;15.82;;;13.32;;
78860;SDS011;68211;45.774;15.892;2023-02-28T08:08:33;14.18;;;12.68;;
78860;SDS011;68211;45.774;15.892;2023-02-28T08:11:00;16.85;;;14.23;;
78860;SDS011;68211;45.774;15.892;2023-02-28T08:13:27;18.95;;;13.90;;
78860;SDS011;68211;45.774;15.892;2023-02-28T08:15:54;17.05;;;14.73;;
78860;SDS011;68211;45.774;15.892;2023-02-28T08:18:21;27.33;;;15.00;;
78860;SDS011;68211;45.774;15.892;2023-02-28T08:20:48;16.00;;;14.05;;
78860;SDS011;68211;45.774;15.892;2023-02-28T08:23:14;17.05;;;14.60;;
78860;SDS011;68211;45.774;15.892;2023-02-28T08:25:41;17.00;;;13.50;;
78860;SDS011;68211;45.774;15.892;2023-02-28T08:28:07;16.65;;;13.98;;
78860;SDS011;68211;45.774;15.892;2023-02-28T08:30:34;17.85;;;14.70;;
78860;SDS011;68211;45.774;15.892;2023-02-28T08:33:00;20.38;;;15.13;;
78860;SDS011;68211;45.774;15.892;2023-02-28T08:35:28;16.77;;;14.07;;
78860;SDS011;68211;45.774;15.892;2023-02-28T08:37:54;17.15;;;14.30;;
78860;SDS011;68211;45.774;15.892;2023-02-28T08:40:21;17.20;;;13.77;;
78860;SDS011;68211;45.774;15.892;2023-02-28T08:42:47;16.90;;;13.90;;
78860;SDS011;68211;45.774;15.892;2023-02-28T08:45:14;17.30;;;13.75;;
78860;SDS011;68211;45.774;15.892;2023-02-28T08:47:40;18.00;;;14.07;;
78860;SDS011;68211;45.774;15.892;2023-02-28T08:50:07;21.25;;;15.00;;
78860;SDS011;68211;45.774;15.892;2023-02-28T08:52:35;21.35;;;14.73;;
78860;SDS011;68211;45.774;15.892;2023-02-28T08:55:02;21.63;;;13.70;;
78860;SDS011;68211;45.774;15.892;2023-02-28T08:57:28;18.30;;;14.02;;
78860;SDS011;68211;45.774;15.892;2023-02-28T08:59:55;19.83;;;14.48;;
78860;SDS011;68211;45.774;15.892;2023-02-28T09:02:21;17.80;;;14.35;;
78860;SDS011;68211;45.774;15.892;2023-02-28T09:04:48;16.85;;;13.20;;
78860;SDS011;68211;45.774;15.892;2023-02-28T09:07:14;17.08;;;13.98;;
78860;SDS011;68211;45.774;15.892;2023-02-28T09:09:42;16.77;;;12.80;;
78860;SDS011;68211;45.774;15.892;2023-02-28T09:12:08;20.23;;;14.27;;
78860;SDS011;68211;45.774;15.892;2023-02-28T09:14:35;23.50;;;13.73;;
78860;SDS011;68211;45.774;15.892;2023-02-28T09:17:01;20.63;;;15.20;;
78860;SDS011;68211;45.774;15.892;2023-02-28T09:19:27;17.00;;;12.85;;
78860;SDS011;68211;45.774;15.892;2023-02-28T09:21:54;22.95;;;16.00;;
78860;SDS011;68211;45.774;15.892;2023-02-28T09:24:20;17.63;;;13.88;;
78860;SDS011;68211;45.774;15.892;2023-02-28T09:26:48;18.63;;;14.05;;
78860;SDS011;68211;45.774;15.892;2023-02-28T09:29:28;18.55;;;14.43;;
78860;SDS011;68211;45.774;15.892;2023-02-28T09:31:55;19.42;;;14.45;;
78860;SDS011;68211;45.774;15.892;2023-02-28T09:34:21;17.10;;;13.23;;
78860;SDS011;68211;45.774;15.892;2023-02-28T09:36:48;22.10;;;13.95;;
78860;SDS011;68211;45.774;15.892;2023-02-28T09:39:15;17.75;;;12.35;;
78860;SDS011;68211;45.774;15.892;2023-02-28T09:41:42;18.92;;;12.98;;
78860;SDS011;68211;45.774;15.892;2023-02-28T09:44:11;15.23;;;13.25;;
78860;SDS011;68211;45.774;15.892;2023-02-28T09:46:40;17.70;;;13.18;;
78860;SDS011;68211;45.774;15.892;2023-02-28T09:49:10;16.20;;;12.82;;
78860;SDS011;68211;45.774;15.892;2023-02-28T09:51:44;14.57;;;12.05;;
78860;SDS011;68211;45.774;15.892;2023-02-28T09:54:13;15.20;;;12.18;;
78860;SDS011;68211;45.774;15.892;2023-02-28T09:56:40;17.25;;;12.68;;
78860;SDS011;68211;45.774;15.892;2023-02-28T09:59:12;18.17;;;11.80;;
78860;SDS011;68211;45.774;15.892;2023-02-28T10:01:42;14.02;;;11.82;;
78860;SDS011;68211;45.774;15.892;2023-02-28T10:04:11;17.52;;;12.55;;
78860;SDS011;68211;45.774;15.892;2023-02-28T10:06:44;15.07;;;12.70;;
78860;SDS011;68211;45.774;15.892;2023-02-28T10:09:11;15.10;;;11.93;;
78860;SDS011;68211;45.774;15.892;2023-02-28T10:11:40;17.67;;;13.35;;
78860;SDS011;68211;45.774;15.892;2023-02-28T10:14:10;13.43;;;11.45;;
78860;SDS011;68211;45.774;15.892;2023-02-28T10:16:39;16.95;;;12.00;;
78860;SDS011;68211;45.774;15.892;2023-02-28T10:19:09;14.68;;;11.32;;
78860;SDS011;68211;45.774;15.892;2023-02-28T10:21:38;16.70;;;11.55;;
78860;SDS011;68211;45.774;15.892;2023-02-28T10:26:49;14.55;;;11.32;;
78860;SDS011;68211;45.774;15.892;2023-02-28T10:29:17;15.43;;;11.07;;
78860;SDS011;68211;45.774;15.892;2023-02-28T10:31:45;14.55;;;11.43;;
78860;SDS011;68211;45.774;15.892;2023-02-28T10:34:12;14.40;;;9.98;;
78860;SDS011;68211;45.774;15.892;2023-02-28T10:36:39;16.45;;;10.20;;
78860;SDS011;68211;45.774;15.892;2023-02-28T10:41:47;11.10;;;9.93;;
78860;SDS011;68211;45.774;15.892;2023-02-28T10:44:14;11.45;;;10.20;;
78860;SDS011;68211;45.774;15.892;2023-02-28T10:46:41;11.93;;;10.25;;
78860;SDS011;68211;45.774;15.892;2023-02-28T10:49:13;11.10;;;9.98;;
78860;SDS011;68211;45.774;15.892;2023-02-28T10:51:40;16.60;;;9.95;;
78860;SDS011;68211;45.774;15.892;2023-02-28T10:54:13;17.73;;;11.13;;
78860;SDS011;68211;45.774;15.892;2023-02-28T10:56:41;11.65;;;9.57;;
78860;SDS011;68211;45.774;15.892;2023-02-28T10:59:22;11.18;;;9.43;;
78860;SDS011;68211;45.774;15.892;2023-02-28T11:01:52;10.73;;;8.73;;
78860;SDS011;68211;45.774;15.892;2023-02-28T11:04:23;10.13;;;8.38;;
78860;SDS011;68211;45.774;15.892;2023-02-28T11:06:58;14.40;;;9.02;;
78860;SDS011;68211;45.774;15.892;2023-02-28T11:09:26;11.20;;;8.85;;
78860;SDS011;68211;45.774;15.892;2023-02-28T11:11:53;13.03;;;9.07;;
78860;SDS011;68211;45.774;15.892;2023-02-28T11:14:21;13.80;;;9.57;;
78860;SDS011;68211;45.774;15.892;2023-02-28T11:16:47;12.38;;;9.45;;
78860;SDS011;68211;45.774;15.892;2023-02-28T11:19:17;15.48;;;9.27;;
78860;SDS011;68211;45.774;15.892;2023-02-28T11:21:48;13.50;;;10.18;;
78860;SDS011;68211;45.774;15.892;2023-02-28T11:24:18;12.98;;;10.25;;
78860;SDS011;68211;45.774;15.892;2023-02-28T11:26:48;12.23;;;9.70;;
78860;SDS011;68211;45.774;15.892;2023-02-28T11:29:18;13.50;;;9.18;;
78860;SDS011;68211;45.774;15.892;2023-02-28T11:32:01;12.38;;;9.93;;
78860;SDS011;68211;45.774;15.892;2023-02-28T11:34:28;10.95;;;8.98;;
78860;SDS011;68211;45.774;15.892;2023-02-28T11:36:56;13.13;;;8.98;;
78860;SDS011;68211;45.774;15.892;2023-02-28T11:39:24;11.40;;;9.00;;
78860;SDS011;68211;45.774;15.892;2023-02-28T11:41:55;10.77;;;8.45;;
78860;SDS011;68211;45.774;15.892;2023-02-28T11:44:28;12.90;;;9.23;;
78860;SDS011;68211;45.774;15.892;2023-02-28T11:47:00;12.50;;;9.63;;
78860;SDS011;68211;45.774;15.892;2023-02-28T11:49:32;11.05;;;8.88;;
78860;SDS011;68211;45.774;15.892;2023-02-28T11:52:04;11.57;;;9.68;;
78860;SDS011;68211;45.774;15.892;2023-02-28T11:54:35;13.98;;;9.02;;
78860;SDS011;68211;45.774;15.892;2023-02-28T11:57:14;13.10;;;10.18;;
78860;SDS011;68211;45.774;15.892;2023-02-28T11:59:46;15.23;;;10.60;;
78860;SDS011;68211;45.774;15.892;2023-02-28T12:02:25;10.43;;;9.23;;
78860;SDS011;68211;45.774;15.892;2023-02-28T12:04:54;12.10;;;9.63;;
78860;SDS011;68211;45.774;15.892;2023-02-28T12:07:28;13.60;;;9.90;;
78860;SDS011;68211;45.774;15.892;2023-02-28T12:09:58;12.23;;;9.13;;
78860;SDS011;68211;45.774;15.892;2023-02-28T12:12:29;11.38;;;8.43;;
78860;SDS011;68211;45.774;15.892;2023-02-28T12:15:04;13.40;;;9.18;;
78860;SDS011;68211;45.774;15.892;2023-02-28T12:17:41;11.75;;;9.40;;
78860;SDS011;68211;45.774;15.892;2023-02-28T12:20:13;11.02;;;9.07;;
78860;SDS011;68211;45.774;15.892;2023-02-28T12:22:43;10.93;;;9.07;;
78860;SDS011;68211;45.774;15.892;2023-02-28T12:28:01;11.38;;;9.70;;
78860;SDS011;68211;45.774;15.892;2023-02-28T12:30:29;15.23;;;11.70;;
78860;SDS011;68211;45.774;15.892;2023-02-28T12:32:58;14.73;;;11.85;;
78860;SDS011;68211;45.774;15.892;2023-02-28T12:35:28;20.02;;;12.00;;
78860;SDS011;68211;45.774;15.892;2023-02-28T12:38:02;13.70;;;11.48;;
78860;SDS011;68211;45.774;15.892;2023-02-28T12:40:32;15.38;;;11.65;;
78860;SDS011;68211;45.774;15.892;2023-02-28T12:43:02;13.80;;;10.98;;
78860;SDS011;68211;45.774;15.892;2023-02-28T12:45:33;16.83;;;11.80;;
78860;SDS011;68211;45.774;15.892;2023-02-28T12:48:02;19.60;;;11.27;;
78860;SDS011;68211;45.774;15.892;2023-02-28T12:50:30;14.63;;;11.55;;
78860;SDS011;68211;45.774;15.892;2023-02-28T12:52:58;14.35;;;11.25;;
78860;SDS011;68211;45.774;15.892;2023-02-28T12:55:29;13.05;;;11.18;;
78860;SDS011;68211;45.774;15.892;2023-02-28T12:57:58;15.93;;;11.77;;
78860;SDS011;68211;45.774;15.892;2023-02-28T13:00:29;12.70;;;11.23;;
78860;SDS011;68211;45.774;15.892;2023-02-28T13:05:56;14.35;;;11.43;;
78860;SDS011;68211;45.774;15.892;2023-02-28T13:11:29;17.05;;;12.15;;
78860;SDS011;68211;45.774;15.892;2023-02-28T13:13:57;16.27;;;12.45;;
78860;SDS011;68211;45.774;15.892;2023-02-28T13:16:24;15.20;;;12.07;;
78860;SDS011;68211;45.774;15.892;2023-02-28T13:18:51;12.27;;;10.90;;
78860;SDS011;68211;45.774;15.892;2023-02-28T13:21:24;15.48;;;12.38;;
78860;SDS011;68211;45.774;15.892;2023-02-28T13:23:57;16.70;;;11.77;;
78860;SDS011;68211;45.774;15.892;2023-02-28T13:26:34;15.20;;;11.43;;
78860;SDS011;68211;45.774;15.892;2023-02-28T13:29:21;15.32;;;11.32;;
78860;SDS011;68211;45.774;15.892;2023-02-28T13:34:38;18.75;;;12.10;;
78860;SDS011;68211;45.774;15.892;2023-02-28T13:39:50;19.70;;;12.35;;
78860;SDS011;68211;45.774;15.892;2023-02-28T13:42:31;14.98;;;11.80;;
78860;SDS011;68211;45.774;15.892;2023-02-28T13:47:43;15.77;;;12.38;;
78860;SDS011;68211;45.774;15.892;2023-02-28T13:50:21;16.70;;;12.43;;
78860;SDS011;68211;45.774;15.892;2023-02-28T13:52:51;17.63;;;12.50;;
78860;SDS011;68211;45.774;15.892;2023-02-28T13:55:27;15.43;;;12.80;;
78860;SDS011;68211;45.774;15.892;2023-02-28T13:58:02;17.10;;;11.60;;
78860;SDS011;68211;45.774;15.892;2023-02-28T14:00:35;15.07;;;11.60;;
78860;SDS011;68211;45.774;15.892;2023-02-28T14:08:42;16.70;;;11.65;;
78860;SDS011;68211;45.774;15.892;2023-02-28T14:11:23;15.13;;;11.30;;
78860;SDS011;68211;45.774;15.892;2023-02-28T14:13:51;15.20;;;12.18;;
78860;SDS011;68211;45.774;15.892;2023-02-28T14:16:20;13.52;;;12.02;;
78860;SDS011;68211;45.774;15.892;2023-02-28T14:18:48;12.90;;;11.50;;
78860;SDS011;68211;45.774;15.892;2023-02-28T14:21:20;16.50;;;11.00;;
78860;SDS011;68211;45.774;15.892;2023-02-28T14:26:49;17.00;;;10.35;;
78860;SDS011;68211;45.774;15.892;2023-02-28T14:29:26;15.02;;;11.10;;
78860;SDS011;68211;45.774;15.892;2023-02-28T14:32:01;15.68;;;10.98;;
78860;SDS011;68211;45.774;15.892;2023-02-28T14:34:31;12.48;;;10.55;;
78860;SDS011;68211;45.774;15.892;2023-02-28T14:37:01;12.85;;;10.30;;
78860;SDS011;68211;45.774;15.892;2023-02-28T14:39:28;14.90;;;10.77;;
78860;SDS011;68211;45.774;15.892;2023-02-28T14:41:56;13.90;;;10.95;;
78860;SDS011;68211;45.774;15.892;2023-02-28T14:44:25;13.25;;;10.50;;
78860;SDS011;68211;45.774;15.892;2023-02-28T14:46:52;14.77;;;10.48;;
78860;SDS011;68211;45.774;15.892;2023-02-28T14:49:20;12.35;;;9.95;;
78860;SDS011;68211;45.774;15.892;2023-02-28T14:51:48;14.38;;;10.38;;
78860;SDS011;68211;45.774;15.892;2023-02-28T14:54:15;13.70;;;10.18;;
78860;SDS011;68211;45.774;15.892;2023-02-28T14:56:42;11.88;;;9.75;;
78860;SDS011;68211;45.774;15.892;2023-02-28T14:59:26;13.50;;;9.85;;
78860;SDS011;68211;45.774;15.892;2023-02-28T15:04:35;9.68;;;8.65;;